OIAG  Aghajari Airport

Add Bookmark

Iran

Status
Operational
Latitude Longitude
30° 44' 39" N 49° 40' 37" E
30.744400 49.677200
Local (DST + 5) UTC (GMT + 4)
Aug 20, 2014 10:59 Aug 20, 2014 18:29
Sunrise-Sunset Local UTC
Begin Civil Twilight 06:14 01:44
Sunrise 06:39 02:09
Sunset 07:49 15:19
End Civil Twilight 08:14 15:44

Current Weather

METAR Observed MVFR
OIAG 201700Z 07016KT 8000 SCT040 42/06 Q1003 Wed, Aug 20, 2014 @ 17:00 UTC
(1 Hour, 29 Minutes ago)
Marginal Visual Flight Rules
Wind Visibility Clouds Conditions
070° at 16 knots (30 kph) 8000 meters
  • Scattered at 4,000' AGL
  • No significant weather
Temperatures Readings Precipitation
Current Temp 42°C (108°F)
Dewpoint 6°C (43°F)
Humidity 11%
Altimeter 29.62"Hg
Sea Level Pressure 1003mb
Field Elevation 95.14'
None Recorded

Additional weather within a 92.6km radius of OIAG

Map ICAO Location
OIAM 54.4km W (248°)

24 Hour Weather History

Loading
-

24 Hour Weather Graphs

Loading
-

CheckWX.com is intended as a tool to help pilots better visualize weather data. It is not intended as a substitute for an official weather briefing obtained from a Flight Service Station. CheckWX.com does not meet the FAA requirements for an official pre-flight weather briefing. Therefore, it's important that pilots still call and obtain an official FSS pre-flight weather briefing.